createdAt,value
2023-04-02T00:00:20.549Z,6.32
2023-04-02T00:01:22.848Z,6.22
2023-04-02T00:02:25.990Z,7.60
2023-04-02T00:03:43.993Z,6.82
2023-04-02T00:05:16.567Z,6.15
2023-04-02T00:06:33.183Z,6.13
2023-04-02T00:07:38.334Z,6.70
2023-04-02T00:08:43.726Z,6.47
2023-04-02T00:09:46.379Z,7.25
2023-04-02T00:10:51.288Z,7.47
2023-04-02T00:11:56.596Z,7.03
2023-04-02T00:13:22.949Z,6.13
2023-04-02T00:14:31.265Z,5.95
2023-04-02T00:15:34.506Z,6.85
2023-04-02T00:16:36.911Z,6.05
2023-04-02T00:17:39.225Z,6.57
2023-04-02T00:18:46.579Z,6.43
2023-04-02T00:19:58.105Z,6.25
2023-04-02T00:21:08.507Z,7.03
2023-04-02T00:22:19.549Z,5.35
2023-04-02T00:23:23.160Z,6.35
2023-04-02T00:24:25.499Z,5.35
2023-04-02T00:25:29.927Z,6.65
2023-04-02T00:26:36.856Z,6.38
2023-04-02T00:27:39.687Z,6.07
2023-04-02T00:28:42.111Z,6.75
2023-04-02T00:29:49.709Z,6.20
2023-04-02T00:30:56.100Z,5.55
2023-04-02T00:31:59.872Z,5.93
2023-04-02T00:33:02.636Z,5.85
2023-04-02T00:34:09.048Z,7.22
2023-04-02T00:35:24.586Z,5.80
2023-04-02T00:36:31.011Z,6.28
2023-04-02T00:37:39.037Z,6.07
2023-04-02T00:38:44.303Z,6.18
2023-04-02T00:39:47.982Z,5.43
2023-04-02T00:40:52.224Z,5.35
2023-04-02T00:42:05.791Z,6.32
2023-04-02T00:43:08.422Z,6.32
2023-04-02T00:44:21.900Z,5.63
2023-04-02T00:45:29.918Z,5.40
2023-04-02T00:46:46.899Z,5.80
2023-04-02T00:47:49.770Z,6.22
2023-04-02T00:49:00.320Z,6.07
2023-04-02T00:50:11.824Z,6.30
2023-04-02T00:51:14.096Z,6.32
2023-04-02T00:52:20.642Z,5.70
2023-04-02T00:53:27.379Z,6.13
2023-04-02T00:54:34.041Z,6.38
2023-04-02T00:55:39.899Z,6.50
2023-04-02T00:56:47.399Z,6.05
2023-04-02T00:57:51.160Z,5.95
2023-04-02T00:58:55.711Z,5.75
2023-04-02T01:00:18.670Z,5.85
2023-04-02T01:01:25.565Z,5.82
2023-04-02T01:02:33.631Z,5.95
2023-04-02T01:03:37.255Z,6.25
2023-04-02T01:04:41.621Z,6.13
2023-04-02T01:06:02.956Z,5.72
2023-04-02T01:07:09.335Z,5.85
2023-04-02T01:08:14.354Z,5.88
2023-04-02T01:09:36.514Z,6.38
2023-04-02T01:10:38.705Z,5.60
2023-04-02T01:12:19.019Z,5.93
2023-04-02T01:13:36.729Z,6.13
2023-04-02T01:15:07.224Z,5.82
2023-04-02T01:16:36.877Z,5.13
2023-04-02T01:18:06.580Z,5.22
2023-04-02T01:19:42.453Z,5.82
2023-04-02T01:20:59.311Z,5.07
2023-04-02T01:22:18.336Z,5.30
2023-04-02T01:23:39.514Z,5.00
2023-04-02T01:24:44.078Z,5.30
2023-04-02T01:26:10.784Z,5.18
2023-04-02T01:27:28.769Z,5.07
2023-04-02T01:28:52.470Z,5.50
2023-04-02T01:30:00.552Z,4.80
2023-04-02T01:31:03.878Z,6.07
2023-04-02T01:32:11.136Z,5.50
2023-04-02T01:33:13.668Z,4.90
2023-04-02T01:34:22.539Z,5.13
2023-04-02T01:35:29.359Z,5.00
2023-04-02T01:36:39.038Z,5.20
2023-04-02T01:37:57.233Z,5.20
2023-04-02T01:39:15.296Z,5.47
2023-04-02T01:40:38.800Z,5.68
2023-04-02T01:42:05.801Z,5.00
2023-04-02T01:43:27.921Z,4.88
2023-04-02T01:44:37.628Z,5.30
2023-04-02T01:45:40.013Z,5.35
2023-04-02T01:46:43.051Z,5.75
2023-04-02T01:47:46.350Z,5.75
2023-04-02T01:48:48.705Z,5.78
2023-04-02T01:49:56.938Z,6.10
2023-04-02T01:51:03.701Z,5.57
2023-04-02T01:52:07.509Z,5.95
2023-04-02T01:53:14.102Z,5.65
2023-04-02T01:54:17.945Z,6.00
2023-04-02T01:55:39.050Z,4.93
2023-04-02T01:56:42.556Z,4.75
2023-04-02T01:57:49.876Z,6.65
2023-04-02T01:58:52.668Z,5.93
2023-04-02T01:59:55.677Z,4.80
2023-04-02T02:01:02.905Z,6.03
2023-04-02T02:02:11.205Z,6.10
2023-04-02T02:03:16.808Z,5.40
2023-04-02T02:04:19.693Z,5.82
2023-04-02T02:05:23.545Z,4.82
2023-04-02T02:06:27.948Z,5.82
2023-04-02T02:07:30.688Z,6.05
2023-04-02T02:08:52.473Z,5.35
2023-04-02T02:09:55.269Z,5.15
2023-04-02T02:10:57.853Z,5.30
2023-04-02T02:12:02.736Z,5.07
2023-04-02T02:13:05.036Z,4.72
2023-04-02T02:14:16.514Z,5.20
2023-04-02T02:15:21.494Z,5.57
2023-04-02T02:16:27.383Z,5.13
2023-04-02T02:17:34.569Z,6.07
2023-04-02T02:18:37.349Z,5.60
2023-04-02T02:19:45.802Z,5.43
2023-04-02T02:20:48.176Z,5.30
2023-04-02T02:21:53.426Z,5.75
2023-04-02T02:22:56.970Z,5.20
2023-04-02T02:24:01.624Z,4.95
2023-04-02T02:25:10.477Z,5.95
2023-04-02T02:26:14.563Z,5.72
2023-04-02T02:27:32.234Z,5.30
2023-04-02T02:28:46.024Z,4.90
2023-04-02T02:30:09.474Z,5.68
2023-04-02T02:31:22.637Z,5.25
2023-04-02T02:32:31.044Z,5.60
2023-04-02T02:33:42.036Z,4.85
2023-04-02T02:35:07.993Z,4.95
2023-04-02T02:36:28.744Z,4.95
2023-04-02T02:37:41.091Z,4.55
2023-04-02T02:39:02.314Z,4.60
2023-04-02T02:40:17.385Z,4.93
2023-04-02T02:41:37.677Z,5.18
2023-04-02T02:42:46.822Z,4.97
2023-04-02T02:44:06.544Z,5.10
2023-04-02T02:45:18.191Z,5.15
2023-04-02T02:46:23.851Z,4.65
2023-04-02T02:47:31.697Z,5.05
2023-04-02T02:48:40.940Z,4.22
2023-04-02T02:49:47.732Z,5.32
2023-04-02T02:50:51.118Z,5.00
2023-04-02T02:52:01.232Z,4.68
2023-04-02T02:53:21.221Z,4.15
2023-04-02T02:54:24.253Z,4.60
2023-04-02T02:55:34.433Z,4.07
2023-04-02T02:56:49.415Z,5.05
2023-04-02T02:58:01.021Z,6.45
2023-04-02T02:59:09.919Z,5.00
2023-04-02T03:00:17.790Z,5.07
2023-04-02T03:01:20.664Z,4.53
2023-04-02T03:02:27.458Z,4.07
2023-04-02T03:03:34.320Z,4.75
2023-04-02T03:04:38.854Z,4.60
2023-04-02T03:05:54.610Z,4.03
2023-04-02T03:06:58.206Z,4.35
2023-04-02T03:08:04.510Z,5.00
2023-04-02T03:09:13.467Z,4.60
2023-04-02T03:10:39.247Z,4.00
2023-04-02T03:11:54.637Z,4.50
2023-04-02T03:13:23.304Z,4.85
2023-04-02T03:14:42.762Z,4.57
2023-04-02T03:16:17.351Z,3.90
2023-04-02T03:17:31.299Z,4.50
2023-04-02T03:18:57.650Z,5.13
2023-04-02T03:20:25.439Z,4.60
2023-04-02T03:21:48.773Z,4.80
2023-04-02T03:23:02.606Z,4.10
2023-04-02T03:24:32.792Z,4.68
2023-04-02T03:25:46.503Z,4.18
2023-04-02T03:27:15.018Z,4.40
2023-04-02T03:28:26.161Z,4.20
2023-04-02T03:29:34.589Z,4.25
2023-04-02T03:30:39.638Z,4.35
2023-04-02T03:31:48.351Z,4.20
2023-04-02T03:32:54.849Z,4.22
2023-04-02T03:34:04.538Z,4.40
2023-04-02T03:35:27.717Z,4.32
2023-04-02T03:36:52.203Z,3.97
2023-04-02T03:38:34.720Z,3.67
2023-04-02T03:39:58.900Z,3.80
2023-04-02T03:41:16.799Z,4.15
2023-04-02T03:42:35.903Z,4.05
2023-04-02T03:43:46.457Z,3.67
2023-04-02T03:45:15.004Z,4.10
2023-04-02T03:46:40.315Z,3.97
2023-04-02T03:47:54.975Z,3.65
2023-04-02T03:49:19.898Z,3.90
2023-04-02T03:50:36.464Z,3.83
2023-04-02T03:52:00.866Z,3.75
2023-04-02T03:53:05.334Z,4.00
2023-04-02T03:54:13.724Z,4.40
2023-04-02T03:55:21.492Z,3.78
2023-04-02T03:56:40.411Z,3.70
2023-04-02T03:58:20.556Z,4.22
2023-04-02T03:59:54.470Z,4.13
2023-04-02T04:01:15.009Z,3.35
2023-04-02T04:02:35.020Z,4.45
2023-04-02T04:03:53.513Z,3.97
2023-04-02T04:04:56.939Z,3.63
2023-04-02T04:06:09.421Z,4.47
2023-04-02T04:07:21.906Z,3.75
2023-04-02T04:08:32.897Z,4.20
2023-04-02T04:09:41.496Z,3.75
2023-04-02T04:10:44.318Z,4.00
2023-04-02T04:11:53.699Z,4.80
2023-04-02T04:13:02.713Z,4.80
2023-04-02T04:14:27.290Z,4.60
2023-04-02T04:15:34.441Z,4.50
2023-04-02T04:16:54.147Z,4.35
2023-04-02T04:18:19.459Z,3.50
2023-04-02T04:19:33.654Z,3.45
2023-04-02T04:20:57.314Z,3.95
2023-04-02T04:22:30.165Z,3.80
2023-04-02T04:23:41.068Z,4.05
2023-04-02T04:24:47.721Z,3.95
2023-04-02T04:26:09.475Z,3.75
2023-04-02T04:27:24.233Z,3.75
2023-04-02T04:28:57.284Z,3.85
2023-04-02T04:30:36.473Z,4.05
2023-04-02T04:31:55.281Z,4.40
2023-04-02T04:33:11.014Z,3.90
2023-04-02T04:34:36.367Z,4.10
2023-04-02T04:35:45.578Z,3.80
2023-04-02T04:37:01.679Z,3.63
2023-04-02T04:38:18.109Z,3.80
2023-04-02T04:39:39.255Z,4.00
2023-04-02T04:40:54.167Z,3.45
2023-04-02T04:42:03.076Z,4.28
2023-04-02T04:43:12.349Z,3.30
2023-04-02T04:44:36.827Z,3.92
2023-04-02T04:45:55.849Z,3.97
2023-04-02T04:47:22.544Z,3.42
2023-04-02T04:48:34.582Z,3.42
2023-04-02T04:49:44.965Z,3.85
2023-04-02T04:50:57.557Z,3.45
2023-04-02T04:52:16.782Z,3.88
2023-04-02T04:53:23.213Z,3.75
2023-04-02T04:54:28.481Z,3.65
2023-04-02T04:55:45.848Z,3.53
2023-04-02T04:56:53.630Z,3.72
2023-04-02T04:58:01.847Z,4.05
2023-04-02T04:59:12.035Z,3.95
2023-04-02T05:00:21.032Z,3.80
2023-04-02T05:01:34.124Z,3.70
2023-04-02T05:02:46.922Z,3.58
2023-04-02T05:03:58.745Z,4.93
2023-04-02T05:05:03.972Z,3.38
2023-04-02T05:06:51.177Z,4.10
2023-04-02T05:07:59.954Z,3.65
2023-04-02T05:09:14.869Z,3.10
2023-04-02T05:10:27.791Z,3.28
2023-04-02T05:11:41.678Z,3.65
2023-04-02T05:12:51.618Z,3.15
2023-04-02T05:14:08.483Z,4.28
2023-04-02T05:15:36.253Z,3.45
2023-04-02T05:16:48.923Z,3.65
2023-04-02T05:18:09.813Z,4.00
2023-04-02T05:19:21.197Z,3.30
2023-04-02T05:20:24.114Z,3.60
2023-04-02T05:22:02.282Z,3.55
2023-04-02T05:23:19.947Z,3.28
2023-04-02T05:24:58.468Z,3.58
2023-04-02T05:26:16.740Z,3.35
2023-04-02T05:27:31.683Z,3.85
2023-04-02T05:28:55.905Z,3.92
2023-04-02T05:30:15.540Z,3.65
2023-04-02T05:31:26.253Z,4.15
2023-04-02T05:32:34.612Z,3.70
2023-04-02T05:33:38.554Z,4.00
2023-04-02T05:34:49.324Z,4.00
2023-04-02T05:35:57.772Z,3.70
2023-04-02T05:37:00.534Z,3.40
2023-04-02T05:38:03.388Z,4.05
2023-04-02T05:39:10.143Z,3.50
2023-04-02T05:40:27.881Z,3.25
2023-04-02T05:41:41.976Z,3.78
2023-04-02T05:42:48.119Z,3.42
2023-04-02T05:43:58.952Z,3.25
2023-04-02T05:45:14.930Z,3.58
2023-04-02T05:46:22.862Z,3.95
2023-04-02T05:47:31.296Z,3.50
2023-04-02T05:48:38.869Z,4.72
2023-04-02T05:49:51.914Z,4.10
2023-04-02T05:50:56.539Z,5.35
2023-04-02T05:52:06.918Z,6.60
2023-04-02T05:53:25.532Z,7.75
2023-04-02T05:54:45.119Z,4.55
2023-04-02T05:55:53.366Z,3.53
2023-04-02T05:57:03.488Z,3.65
2023-04-02T05:58:37.343Z,4.78
2023-04-02T06:00:03.860Z,3.20
2023-04-02T06:01:21.017Z,3.88
2023-04-02T06:02:33.435Z,3.45
2023-04-02T06:03:40.943Z,2.97
2023-04-02T06:05:04.390Z,2.35
2023-04-02T06:06:27.308Z,2.50
2023-04-02T06:07:41.769Z,2.95
2023-04-02T06:08:52.407Z,2.67
2023-04-02T06:10:07.953Z,2.35
2023-04-02T06:11:17.663Z,2.47
2023-04-02T06:12:44.927Z,2.70
2023-04-02T06:13:48.316Z,2.50
2023-04-02T06:14:51.344Z,3.17
2023-04-02T06:15:53.939Z,2.72
2023-04-02T06:17:00.645Z,2.63
2023-04-02T06:18:17.680Z,2.83
2023-04-02T06:19:31.054Z,2.95
2023-04-02T06:20:34.504Z,2.30
2023-04-02T06:21:44.130Z,2.42
2023-04-02T06:22:53.144Z,2.65
2023-04-02T06:23:58.943Z,3.08
2023-04-02T06:25:14.277Z,2.70
2023-04-02T06:26:40.090Z,2.35
2023-04-02T06:27:45.558Z,3.70
2023-04-02T06:29:21.456Z,2.90
2023-04-02T06:30:33.909Z,3.63
2023-04-02T06:31:42.476Z,3.28
2023-04-02T06:32:46.910Z,3.30
2023-04-02T06:33:52.394Z,3.67
2023-04-02T06:34:56.979Z,3.10
2023-04-02T06:36:01.494Z,3.42
2023-04-02T06:37:24.154Z,3.65
2023-04-02T06:38:33.450Z,13.60
2023-04-02T06:39:36.420Z,7.10
2023-04-02T06:40:42.799Z,7.45
2023-04-02T06:42:02.233Z,6.57
2023-04-02T06:43:43.012Z,10.40
2023-04-02T06:44:54.534Z,75.07
2023-04-02T06:46:28.653Z,34.28
2023-04-02T06:47:48.847Z,14.75
2023-04-02T06:49:34.346Z,5.05
2023-04-02T06:50:47.862Z,5.13
2023-04-02T06:51:54.211Z,4.80
2023-04-02T06:53:00.145Z,5.80
2023-04-02T06:54:02.652Z,6.38
2023-04-02T06:55:21.746Z,4.55
2023-04-02T06:56:46.778Z,3.28
2023-04-02T06:57:54.677Z,3.40
2023-04-02T06:58:57.745Z,3.88
2023-04-02T07:00:00.213Z,3.55
2023-04-02T07:01:02.933Z,3.78
2023-04-02T07:02:20.055Z,3.53
2023-04-02T07:03:31.644Z,2.83
2023-04-02T07:04:39.301Z,2.97
2023-04-02T07:05:43.063Z,3.03
2023-04-02T07:06:46.119Z,3.33
2023-04-02T07:07:49.894Z,2.95
2023-04-02T07:08:53.046Z,2.55
2023-04-02T07:09:57.633Z,2.53
2023-04-02T07:10:59.947Z,2.90
2023-04-02T07:12:02.497Z,2.17
2023-04-02T07:13:05.993Z,2.20
2023-04-02T07:14:15.596Z,2.65
2023-04-02T07:15:19.858Z,2.22
2023-04-02T07:16:27.325Z,3.70
2023-04-02T07:17:30.779Z,2.92
2023-04-02T07:18:34.244Z,5.85
2023-04-02T07:19:40.089Z,3.33
2023-04-02T07:20:42.385Z,2.92
2023-04-02T07:21:48.069Z,3.70
2023-04-02T07:22:50.831Z,3.58
2023-04-02T07:23:54.224Z,2.58
2023-04-02T07:24:56.545Z,3.38
2023-04-02T07:25:59.502Z,2.08
2023-04-02T07:27:01.837Z,2.10
2023-04-02T07:28:05.197Z,2.03
2023-04-02T07:29:09.230Z,2.70
2023-04-02T07:30:11.621Z,3.33
2023-04-02T07:31:25.922Z,10.32
2023-04-02T07:32:28.248Z,10.15
2023-04-02T07:33:31.244Z,9.18
2023-04-02T07:34:33.558Z,2.95
2023-04-02T07:35:36.046Z,2.15
2023-04-02T07:36:38.494Z,2.30
2023-04-02T07:37:40.840Z,2.22
2023-04-02T07:38:43.520Z,2.10
2023-04-02T07:39:45.791Z,2.70
2023-04-02T07:40:48.145Z,1.92
2023-04-02T07:41:55.164Z,2.35
2023-04-02T07:42:57.426Z,2.35
2023-04-02T07:43:59.837Z,7.30
2023-04-02T07:45:04.049Z,7.90
2023-04-02T07:46:09.125Z,30.38
2023-04-02T07:47:11.619Z,3.35
2023-04-02T07:48:14.933Z,2.20
2023-04-02T07:49:17.381Z,2.10
2023-04-02T07:50:20.148Z,2.60
2023-04-02T07:51:24.864Z,3.03
2023-04-02T07:52:27.343Z,3.08
2023-04-02T07:53:35.700Z,2.60
2023-04-02T07:54:38.434Z,12.93
2023-04-02T07:55:40.669Z,11.27
2023-04-02T07:56:43.309Z,3.17
2023-04-02T07:57:51.372Z,3.05
2023-04-02T07:58:53.636Z,2.50
2023-04-02T07:59:57.131Z,21.55
2023-04-02T08:01:01.652Z,11.18
2023-04-02T08:02:04.530Z,3.05
2023-04-02T08:03:07.031Z,2.75
2023-04-02T08:04:20.594Z,2.00
2023-04-02T08:05:23.093Z,4.10
2023-04-02T08:06:25.704Z,2.78
2023-04-02T08:07:28.508Z,2.00
2023-04-02T08:08:31.019Z,2.17
2023-04-02T08:09:33.335Z,6.07
2023-04-02T08:10:35.795Z,5.45
2023-04-02T08:11:38.076Z,11.77
2023-04-02T08:12:40.574Z,3.75
2023-04-02T08:13:43.502Z,4.68
2023-04-02T08:14:45.994Z,2.75
2023-04-02T08:15:48.261Z,2.70
2023-04-02T08:16:53.076Z,5.40
2023-04-02T08:17:55.781Z,4.60
2023-04-02T08:18:58.219Z,2.47
2023-04-02T08:20:01.065Z,2.30
2023-04-02T08:21:06.602Z,2.28
2023-04-02T08:22:08.885Z,2.30
2023-04-02T08:23:17.189Z,2.40
2023-04-02T08:24:20.026Z,3.83
2023-04-02T08:25:22.525Z,4.10
2023-04-02T08:26:24.785Z,9.43
2023-04-02T08:27:27.305Z,4.82
2023-04-02T08:28:29.781Z,3.33
2023-04-02T08:29:32.264Z,2.63
2023-04-02T08:30:34.911Z,1.80
2023-04-02T08:31:37.379Z,2.50
2023-04-02T08:32:41.269Z,7.97
2023-04-02T08:33:43.789Z,6.85
2023-04-02T08:34:46.279Z,4.57
2023-04-02T08:35:49.649Z,2.80
2023-04-02T08:36:56.027Z,2.53
2023-04-02T08:37:58.871Z,2.75
2023-04-02T08:39:02.048Z,5.43
2023-04-02T08:40:06.856Z,2.28
2023-04-02T08:41:23.240Z,4.10
2023-04-02T08:43:00.995Z,3.25
2023-04-02T08:44:09.242Z,2.25
2023-04-02T08:45:32.520Z,2.30
2023-04-02T08:46:47.715Z,3.00
2023-04-02T08:47:52.027Z,2.42
2023-04-02T08:48:58.965Z,2.20
2023-04-02T08:50:07.863Z,4.35
2023-04-02T08:51:28.875Z,2.90
2023-04-02T08:52:36.715Z,7.75
2023-04-02T08:53:40.473Z,4.20
2023-04-02T08:54:43.694Z,2.50
2023-04-02T08:56:17.604Z,2.40
2023-04-02T08:57:49.616Z,3.33
2023-04-02T08:58:56.090Z,2.50
2023-04-02T09:00:24.996Z,1.85
2023-04-02T09:01:43.462Z,2.95
2023-04-02T09:02:53.068Z,6.03
2023-04-02T09:03:58.917Z,4.65
2023-04-02T09:05:05.376Z,11.40
2023-04-02T09:06:14.309Z,6.00
2023-04-02T09:07:18.100Z,4.35
2023-04-02T09:08:25.661Z,2.50
2023-04-02T09:09:28.147Z,3.45
2023-04-02T09:11:05.679Z,2.90
2023-04-02T09:12:19.876Z,8.07
2023-04-02T09:13:27.202Z,6.38
2023-04-02T09:14:53.662Z,4.50
2023-04-02T09:16:09.913Z,3.10
2023-04-02T09:17:26.373Z,2.20
2023-04-02T09:18:32.139Z,2.75
2023-04-02T09:19:41.367Z,2.30
2023-04-02T09:20:44.656Z,2.63
2023-04-02T09:22:06.453Z,3.05
2023-04-02T09:23:19.652Z,2.85
2023-04-02T09:24:22.037Z,4.25
2023-04-02T09:25:28.667Z,4.53
2023-04-02T09:26:33.432Z,3.88
2023-04-02T09:27:36.567Z,5.20
2023-04-02T09:28:38.979Z,12.57
2023-04-02T09:29:44.752Z,10.82
2023-04-02T09:31:07.068Z,7.85
2023-04-02T09:32:32.348Z,4.93
2023-04-02T09:33:45.250Z,3.10
2023-04-02T09:34:47.843Z,9.70
2023-04-02T09:35:54.860Z,12.57
2023-04-02T09:36:57.902Z,13.40
2023-04-02T09:38:22.114Z,19.90
2023-04-02T09:39:26.350Z,12.75
2023-04-02T09:40:32.352Z,8.82
2023-04-02T09:41:36.982Z,8.60
2023-04-02T09:42:39.570Z,9.13
2023-04-02T09:43:41.819Z,9.38
2023-04-02T09:44:44.144Z,9.50
2023-04-02T09:46:04.089Z,8.73
2023-04-02T09:47:24.795Z,11.50
2023-04-02T09:48:30.890Z,10.43
2023-04-02T09:49:36.239Z,11.45
2023-04-02T09:50:38.816Z,10.45
2023-04-02T09:51:41.126Z,8.20
2023-04-02T09:52:43.404Z,5.22
2023-04-02T09:54:05.089Z,3.10
2023-04-02T09:55:16.255Z,2.75
2023-04-02T09:56:24.274Z,3.88
2023-04-02T09:57:28.135Z,6.15
2023-04-02T09:58:30.455Z,4.30
2023-04-02T09:59:32.688Z,2.63
2023-04-02T10:00:35.600Z,2.65
2023-04-02T10:02:01.472Z,2.30
2023-04-02T10:03:19.396Z,3.72
2023-04-02T10:04:36.974Z,2.88
2023-04-02T10:05:41.052Z,2.47
2023-04-02T10:06:50.303Z,2.47
2023-04-02T10:07:54.412Z,1.90
2023-04-02T10:08:57.207Z,2.85
2023-04-02T10:10:01.743Z,2.53
2023-04-02T10:11:09.094Z,3.20
2023-04-02T10:12:14.437Z,2.53
2023-04-02T10:13:38.424Z,2.72
2023-04-02T10:14:46.317Z,3.25
2023-04-02T10:15:54.641Z,4.15
2023-04-02T10:17:07.766Z,2.95
2023-04-02T10:18:24.727Z,4.00
2023-04-02T10:19:35.729Z,2.97
2023-04-02T10:20:50.582Z,3.35
2023-04-02T10:21:55.661Z,3.15
2023-04-02T10:22:57.959Z,3.00
2023-04-02T10:24:02.959Z,2.78
2023-04-02T10:25:17.398Z,3.30
2023-04-02T10:26:25.424Z,3.20
2023-04-02T10:27:37.641Z,2.95
2023-04-02T10:28:56.738Z,3.10
2023-04-02T10:30:22.114Z,3.25
2023-04-02T10:31:41.304Z,2.85
2023-04-02T10:32:52.140Z,2.60
2023-04-02T10:34:06.619Z,2.30
2023-04-02T10:35:19.797Z,2.60
2023-04-02T10:36:50.637Z,2.47
2023-04-02T10:37:58.110Z,2.25
2023-04-02T10:39:08.550Z,2.60
2023-04-02T10:40:12.792Z,2.47
2023-04-02T10:41:41.476Z,2.47
2023-04-02T10:43:42.124Z,2.65
2023-04-02T10:45:00.468Z,2.30
2023-04-02T10:46:10.163Z,2.72
2023-04-02T10:47:41.211Z,3.03
2023-04-02T10:48:54.008Z,2.50
2023-04-02T10:50:26.399Z,2.75
2023-04-02T10:51:40.722Z,1.70
2023-04-02T10:52:50.137Z,2.40
2023-04-02T10:54:06.392Z,1.67
2023-04-02T10:55:21.385Z,2.10
2023-04-02T10:56:26.361Z,1.80
2023-04-02T10:57:37.099Z,2.00
2023-04-02T10:58:53.818Z,2.53
2023-04-02T11:00:11.160Z,2.00
2023-04-02T11:01:20.373Z,2.10
2023-04-02T11:02:37.943Z,2.05
2023-04-02T11:03:58.204Z,1.90
2023-04-02T11:05:10.916Z,2.47
2023-04-02T11:06:39.306Z,2.25
2023-04-02T11:07:53.349Z,1.98
2023-04-02T11:09:04.985Z,1.98
2023-04-02T11:10:07.899Z,1.90
2023-04-02T11:11:27.361Z,1.50
2023-04-02T11:12:43.080Z,1.60
2023-04-02T11:14:05.462Z,1.67
2023-04-02T11:15:16.956Z,1.83
2023-04-02T11:16:19.782Z,1.73
2023-04-02T11:17:22.462Z,2.17
2023-04-02T11:18:38.692Z,1.67
2023-04-02T11:19:40.930Z,1.60
2023-04-02T11:20:57.301Z,1.95
2023-04-02T11:22:13.344Z,1.77
2023-04-02T11:23:19.651Z,2.03
2023-04-02T11:24:33.667Z,2.10
2023-04-02T11:25:36.501Z,1.83
2023-04-02T11:26:41.950Z,1.75
2023-04-02T11:27:44.376Z,1.70
2023-04-02T11:28:46.776Z,1.70
2023-04-02T11:30:25.750Z,2.22
2023-04-02T11:31:28.114Z,1.80
2023-04-02T11:32:39.744Z,2.20
2023-04-02T11:33:45.507Z,1.92
2023-04-02T11:34:59.865Z,1.70
2023-04-02T11:36:46.398Z,2.00
2023-04-02T11:37:48.822Z,2.10
2023-04-02T11:38:52.511Z,2.08
2023-04-02T11:39:59.481Z,2.42
2023-04-02T11:41:01.815Z,2.47
2023-04-02T11:42:21.357Z,1.80
2023-04-02T11:43:36.102Z,2.17
2023-04-02T11:44:38.465Z,1.65
2023-04-02T11:45:52.452Z,1.83
2023-04-02T11:47:24.508Z,2.58
2023-04-02T11:48:31.258Z,1.90
2023-04-02T11:49:39.760Z,2.20
2023-04-02T11:50:44.719Z,2.30
2023-04-02T11:51:52.395Z,1.95
2023-04-02T11:53:10.691Z,2.40
2023-04-02T11:54:25.282Z,2.70
2023-04-02T11:55:31.593Z,1.98
2023-04-02T11:56:48.318Z,2.10
2023-04-02T11:58:22.746Z,2.55
2023-04-02T12:00:01.340Z,2.33
2023-04-02T12:01:11.738Z,2.70
2023-04-02T12:02:29.324Z,3.13
2023-04-02T12:03:56.348Z,2.53
2023-04-02T12:05:24.004Z,1.75
2023-04-02T12:06:47.533Z,2.30
2023-04-02T12:07:53.448Z,2.03
2023-04-02T12:09:27.921Z,2.53
2023-04-02T12:10:51.531Z,2.17
2023-04-02T12:11:59.996Z,3.78
2023-04-02T12:13:02.385Z,2.40
2023-04-02T12:14:30.707Z,2.00
2023-04-02T12:15:49.325Z,2.50
2023-04-02T12:16:52.245Z,2.40
2023-04-02T12:18:23.073Z,2.60
2023-04-02T12:19:26.610Z,2.80
2023-04-02T12:20:30.836Z,2.60
2023-04-02T12:21:33.207Z,2.90
2023-04-02T12:22:39.505Z,2.60
2023-04-02T12:23:46.936Z,2.30
2023-04-02T12:24:50.106Z,2.88
2023-04-02T12:26:07.299Z,2.35
2023-04-02T12:27:24.481Z,2.20
2023-04-02T12:28:34.076Z,2.83
2023-04-02T12:29:39.002Z,2.60
2023-04-02T12:30:41.997Z,2.85
2023-04-02T12:31:47.746Z,2.63
2023-04-02T12:32:50.495Z,3.22
2023-04-02T12:33:53.439Z,5.00
2023-04-02T12:34:57.813Z,2.80
2023-04-02T12:36:02.478Z,2.60
2023-04-02T12:37:05.584Z,2.60
2023-04-02T12:38:57.321Z,2.85
2023-04-02T12:40:07.044Z,2.40
2023-04-02T12:41:30.448Z,2.60
2023-04-02T12:42:35.260Z,2.95
2023-04-02T12:43:38.149Z,1.80
2023-04-02T12:44:48.940Z,2.35
2023-04-02T12:45:57.214Z,2.10
2023-04-02T12:46:59.683Z,2.30
2023-04-02T12:48:05.447Z,2.70
2023-04-02T12:49:22.515Z,3.17
2023-04-02T12:50:24.976Z,2.42
2023-04-02T12:51:28.413Z,2.17
2023-04-02T12:52:31.000Z,2.22
2023-04-02T12:53:40.077Z,2.40
2023-04-02T12:54:53.653Z,3.10
2023-04-02T12:55:56.326Z,2.28
2023-04-02T12:57:28.653Z,2.13
2023-04-02T12:58:40.000Z,3.00
2023-04-02T12:59:43.641Z,2.20
2023-04-02T13:00:46.286Z,2.25
2023-04-02T13:01:57.341Z,2.70
2023-04-02T13:03:21.932Z,2.30
2023-04-02T13:04:24.627Z,2.60
2023-04-02T13:05:37.295Z,2.38
2023-04-02T13:06:42.571Z,2.83
2023-04-02T13:07:47.478Z,2.50
2023-04-02T13:08:50.475Z,2.50
2023-04-02T13:10:00.950Z,2.30
2023-04-02T13:11:05.240Z,2.83
2023-04-02T13:12:25.045Z,2.75
2023-04-02T13:13:36.480Z,2.60
2023-04-02T13:14:38.751Z,2.13
2023-04-02T13:15:43.684Z,2.67
2023-04-02T13:16:46.629Z,2.70
2023-04-02T13:18:22.229Z,2.42
2023-04-02T13:19:33.308Z,2.30
2023-04-02T13:20:36.968Z,2.47
2023-04-02T13:21:39.610Z,2.70
2023-04-02T13:22:42.140Z,2.95
2023-04-02T13:23:46.018Z,2.80
2023-04-02T13:24:48.396Z,3.05
2023-04-02T13:25:51.848Z,2.60
2023-04-02T13:27:02.353Z,2.88
2023-04-02T13:28:04.787Z,2.33
2023-04-02T13:29:17.030Z,3.50
2023-04-02T13:30:24.077Z,3.70
2023-04-02T13:31:26.938Z,2.22
2023-04-02T13:32:31.016Z,2.92
2023-04-02T13:33:33.428Z,2.92
2023-04-02T13:34:35.957Z,3.22
2023-04-02T13:35:38.204Z,2.50
2023-04-02T13:36:40.779Z,2.80
2023-04-02T13:37:43.330Z,3.17
2023-04-02T13:38:45.918Z,3.28
2023-04-02T13:39:48.181Z,2.90
2023-04-02T13:40:51.411Z,2.50
2023-04-02T13:41:59.037Z,2.97
2023-04-02T13:43:02.851Z,3.08
2023-04-02T13:44:05.263Z,3.20
2023-04-02T13:45:23.283Z,3.63
2023-04-02T13:46:28.052Z,2.13
2023-04-02T13:47:30.449Z,2.88
2023-04-02T13:48:32.960Z,2.65
2023-04-02T13:49:35.934Z,3.40
2023-04-02T13:50:38.327Z,3.20
2023-04-02T13:51:49.111Z,2.38
2023-04-02T13:52:52.385Z,2.70
2023-04-02T13:53:57.506Z,2.97
2023-04-02T13:55:01.267Z,2.45
2023-04-02T13:56:03.809Z,3.10
2023-04-02T13:57:06.333Z,2.95
2023-04-02T13:58:08.658Z,3.85
2023-04-02T13:59:11.297Z,4.07
2023-04-02T14:00:13.960Z,4.55
2023-04-02T14:01:17.330Z,3.65
2023-04-02T14:02:23.573Z,4.72
2023-04-02T14:03:25.896Z,3.22
2023-04-02T14:04:33.076Z,3.00
2023-04-02T14:05:41.801Z,2.20
2023-04-02T14:06:56.065Z,3.08
2023-04-02T14:08:22.809Z,2.20
2023-04-02T14:09:47.988Z,3.63
2023-04-02T14:11:05.734Z,3.83
2023-04-02T14:12:44.606Z,3.30
2023-04-02T14:14:19.639Z,3.08
2023-04-02T14:16:13.028Z,3.50
2023-04-02T14:17:43.633Z,2.60
2023-04-02T14:18:53.974Z,2.13
2023-04-02T14:20:35.022Z,2.20
2023-04-02T14:21:45.704Z,2.20
2023-04-02T14:22:59.085Z,3.08
2023-04-02T14:24:24.045Z,4.65
2023-04-02T14:26:04.906Z,3.15
2023-04-02T14:27:48.977Z,3.03
2023-04-02T14:29:05.096Z,1.83
2023-04-02T14:30:16.614Z,2.47
2023-04-02T14:31:32.644Z,3.30
2023-04-02T14:33:01.517Z,1.90
2023-04-02T14:34:29.187Z,1.90
2023-04-02T14:35:37.408Z,2.88
2023-04-02T14:37:19.548Z,1.83
2023-04-02T14:38:36.565Z,1.42
2023-04-02T14:40:12.975Z,1.65
2023-04-02T14:41:30.213Z,1.40
2023-04-02T14:43:16.439Z,2.90
2023-04-02T14:44:22.237Z,3.33
2023-04-02T14:45:36.162Z,2.63
2023-04-02T14:46:39.102Z,2.40
2023-04-02T14:47:46.943Z,2.63
2023-04-02T14:48:55.934Z,1.95
2023-04-02T14:50:27.963Z,3.05
2023-04-02T14:51:36.192Z,3.33
2023-04-02T14:52:42.122Z,2.60
2023-04-02T14:53:59.896Z,2.78
2023-04-02T14:55:05.994Z,2.55
2023-04-02T14:56:11.616Z,2.75
2023-04-02T14:57:23.614Z,5.40
2023-04-02T14:58:33.082Z,2.40
2023-04-02T14:59:46.732Z,2.30
2023-04-02T15:01:20.560Z,2.83
2023-04-02T15:02:40.407Z,2.35
2023-04-02T15:03:49.681Z,1.50
2023-04-02T15:05:14.512Z,2.38
2023-04-02T15:06:26.271Z,9.05
2023-04-02T15:07:38.439Z,15.50
2023-04-02T15:09:08.203Z,15.40
2023-04-02T15:10:31.658Z,15.23
2023-04-02T15:11:48.017Z,17.75
2023-04-02T15:12:53.717Z,21.03
2023-04-02T15:14:11.411Z,24.27
2023-04-02T15:15:40.921Z,18.85
2023-04-02T15:16:44.883Z,15.40
2023-04-02T15:17:47.274Z,11.23
2023-04-02T15:18:56.446Z,10.27
2023-04-02T15:20:14.622Z,12.50
2023-04-02T15:21:19.435Z,13.98
2023-04-02T15:23:06.493Z,11.82
2023-04-02T15:24:31.328Z,8.40
2023-04-02T15:25:43.010Z,16.75
2023-04-02T15:27:24.373Z,23.80
2023-04-02T15:28:40.885Z,6.15
2023-04-02T15:30:09.007Z,8.85
2023-04-02T15:31:15.183Z,8.48
2023-04-02T15:32:47.310Z,9.27
2023-04-02T15:34:32.081Z,5.68
2023-04-02T15:35:49.731Z,8.27
2023-04-02T15:37:08.143Z,11.77
2023-04-02T15:38:28.420Z,8.20
2023-04-02T15:39:39.456Z,8.27
2023-04-02T15:41:02.101Z,9.32
2023-04-02T15:42:08.830Z,17.60
2023-04-02T15:43:29.167Z,13.48
2023-04-02T15:44:33.625Z,8.35
2023-04-02T15:46:04.600Z,6.95
2023-04-02T15:47:06.858Z,3.80
2023-04-02T15:48:34.770Z,4.68
2023-04-02T15:50:15.227Z,4.32
2023-04-02T15:51:33.952Z,4.53
2023-04-02T15:53:28.156Z,4.90
2023-04-02T15:54:41.990Z,3.78
2023-04-02T15:55:50.027Z,3.40
2023-04-02T15:57:36.623Z,3.05